sensor_id;sensor_type;location;lat;lon;timestamp;temperature;humidity
32366;DHT22;18837;46.832;16.838;2024-03-23T00:53:40;11.90;96.30
32366;DHT22;18837;46.832;16.838;2024-03-23T00:56:06;11.90;96.20
32366;DHT22;18837;46.832;16.838;2024-03-23T00:58:32;11.90;96.10
32366;DHT22;18837;46.832;16.838;2024-03-23T01:00:57;11.90;96.00
32366;DHT22;18837;46.832;16.838;2024-03-23T01:03:23;11.90;96.20
32366;DHT22;18837;46.832;16.838;2024-03-23T01:05:49;11.80;96.10
32366;DHT22;18837;46.832;16.838;2024-03-23T01:08:15;11.90;96.20
32366;DHT22;18837;46.832;16.838;2024-03-23T01:10:40;11.80;96.20
32366;DHT22;18837;46.832;16.838;2024-03-23T01:13:06;11.80;96.20
32366;DHT22;18837;46.832;16.838;2024-03-23T01:15:32;11.80;96.20
32366;DHT22;18837;46.832;16.838;2024-03-23T01:17:58;11.80;96.20
32366;DHT22;18837;46.832;16.838;2024-03-23T01:20:23;11.80;96.20
32366;DHT22;18837;46.832;16.838;2024-03-23T01:22:49;11.80;96.20
32366;DHT22;18837;46.832;16.838;2024-03-23T01:25:14;11.80;96.20
32366;DHT22;18837;46.832;16.838;2024-03-23T01:27:40;11.80;96.20
32366;DHT22;18837;46.832;16.838;2024-03-23T01:30:06;11.70;95.80
32366;DHT22;18837;46.832;16.838;2024-03-23T01:32:33;11.70;96.00
32366;DHT22;18837;46.832;16.838;2024-03-23T01:34:58;11.70;96.20
32366;DHT22;18837;46.832;16.838;2024-03-23T01:37:24;11.70;96.30
32366;DHT22;18837;46.832;16.838;2024-03-23T01:39:50;11.70;96.20
32366;DHT22;18837;46.832;16.838;2024-03-23T01:42:16;11.70;96.40
32366;DHT22;18837;46.832;16.838;2024-03-23T01:44:42;11.70;96.20
32366;DHT22;18837;46.832;16.838;2024-03-23T01:47:07;11.70;96.40
32366;DHT22;18837;46.832;16.838;2024-03-23T01:49:33;11.70;96.50
32366;DHT22;18837;46.832;16.838;2024-03-23T01:51:59;11.70;96.40
32366;DHT22;18837;46.832;16.838;2024-03-23T01:54:25;11.60;96.40
32366;DHT22;18837;46.832;16.838;2024-03-23T01:56:51;11.70;96.40
32366;DHT22;18837;46.832;16.838;2024-03-23T01:59:17;11.60;96.40
32366;DHT22;18837;46.832;16.838;2024-03-23T02:01:43;11.60;96.40
32366;DHT22;18837;46.832;16.838;2024-03-23T02:04:08;11.60;96.40
32366;DHT22;18837;46.832;16.838;2024-03-23T02:06:35;11.60;96.50
32366;DHT22;18837;46.832;16.838;2024-03-23T02:09:01;11.60;96.40
32366;DHT22;18837;46.832;16.838;2024-03-23T02:11:26;11.60;96.50
32366;DHT22;18837;46.832;16.838;2024-03-23T02:13:52;11.60;96.50
32366;DHT22;18837;46.832;16.838;2024-03-23T02:16:18;11.60;96.40
32366;DHT22;18837;46.832;16.838;2024-03-23T02:18:44;11.50;96.40
32366;DHT22;18837;46.832;16.838;2024-03-23T02:21:09;11.50;96.40
32366;DHT22;18837;46.832;16.838;2024-03-23T02:23:35;11.50;96.50
32366;DHT22;18837;46.832;16.838;2024-03-23T02:26:01;11.50;96.20
32366;DHT22;18837;46.832;16.838;2024-03-23T02:28:27;11.50;96.50
32366;DHT22;18837;46.832;16.838;2024-03-23T02:30:52;11.50;96.40
32366;DHT22;18837;46.832;16.838;2024-03-23T02:33:18;11.50;96.50
32366;DHT22;18837;46.832;16.838;2024-03-23T02:35:45;11.50;96.40
32366;DHT22;18837;46.832;16.838;2024-03-23T02:38:10;11.50;96.40
32366;DHT22;18837;46.832;16.838;2024-03-23T02:40:36;11.50;96.50
32366;DHT22;18837;46.832;16.838;2024-03-23T02:43:03;11.50;96.60
32366;DHT22;18837;46.832;16.838;2024-03-23T02:45:29;11.50;96.50
32366;DHT22;18837;46.832;16.838;2024-03-23T02:47:54;11.50;96.60
32366;DHT22;18837;46.832;16.838;2024-03-23T02:50:21;11.50;96.60
32366;DHT22;18837;46.832;16.838;2024-03-23T02:52:47;11.50;96.60
32366;DHT22;18837;46.832;16.838;2024-03-23T02:55:13;11.50;96.60
32366;DHT22;18837;46.832;16.838;2024-03-23T02:57:40;11.50;96.60
32366;DHT22;18837;46.832;16.838;2024-03-23T03:00:06;11.50;96.60
32366;DHT22;18837;46.832;16.838;2024-03-23T03:02:33;11.50;96.50
32366;DHT22;18837;46.832;16.838;2024-03-23T03:04:59;11.50;96.40
32366;DHT22;18837;46.832;16.838;2024-03-23T03:07:25;11.40;96.50
32366;DHT22;18837;46.832;16.838;2024-03-23T03:09:51;11.40;96.50
32366;DHT22;18837;46.832;16.838;2024-03-23T03:12:16;11.40;96.50
32366;DHT22;18837;46.832;16.838;2024-03-23T03:14:42;11.40;96.30
32366;DHT22;18837;46.832;16.838;2024-03-23T03:17:08;11.40;96.50
32366;DHT22;18837;46.832;16.838;2024-03-23T03:19:34;11.50;96.60
32366;DHT22;18837;46.832;16.838;2024-03-23T03:21:59;11.40;96.60
32366;DHT22;18837;46.832;16.838;2024-03-23T03:24:25;11.40;96.70
32366;DHT22;18837;46.832;16.838;2024-03-23T03:26:51;11.40;96.60
32366;DHT22;18837;46.832;16.838;2024-03-23T03:29:17;11.40;96.50
32366;DHT22;18837;46.832;16.838;2024-03-23T03:31:43;11.40;96.70
32366;DHT22;18837;46.832;16.838;2024-03-23T03:34:09;11.40;96.60
32366;DHT22;18837;46.832;16.838;2024-03-23T03:36:35;11.40;96.60
32366;DHT22;18837;46.832;16.838;2024-03-23T03:39:03;11.40;96.60
32366;DHT22;18837;46.832;16.838;2024-03-23T03:41:30;11.40;96.70
32366;DHT22;18837;46.832;16.838;2024-03-23T03:43:56;11.40;96.70
32366;DHT22;18837;46.832;16.838;2024-03-23T03:46:26;11.40;96.60
32366;DHT22;18837;46.832;16.838;2024-03-23T03:48:52;11.40;96.60
32366;DHT22;18837;46.832;16.838;2024-03-23T03:51:19;11.40;96.70
32366;DHT22;18837;46.832;16.838;2024-03-23T03:53:45;11.40;96.60
32366;DHT22;18837;46.832;16.838;2024-03-23T03:56:10;11.40;96.70
32366;DHT22;18837;46.832;16.838;2024-03-23T03:58:37;11.40;96.60
32366;DHT22;18837;46.832;16.838;2024-03-23T04:01:02;11.40;96.70
32366;DHT22;18837;46.832;16.838;2024-03-23T04:03:28;11.30;96.60
32366;DHT22;18837;46.832;16.838;2024-03-23T04:05:55;11.30;96.70
32366;DHT22;18837;46.832;16.838;2024-03-23T04:08:21;11.30;96.70
32366;DHT22;18837;46.832;16.838;2024-03-23T04:10:47;11.30;96.60
32366;DHT22;18837;46.832;16.838;2024-03-23T04:13:13;11.30;96.70
32366;DHT22;18837;46.832;16.838;2024-03-23T04:15:40;11.30;96.60
32366;DHT22;18837;46.832;16.838;2024-03-23T04:18:06;11.30;96.70
32366;DHT22;18837;46.832;16.838;2024-03-23T04:20:32;11.30;96.70
32366;DHT22;18837;46.832;16.838;2024-03-23T04:22:59;11.30;96.70
32366;DHT22;18837;46.832;16.838;2024-03-23T04:25:25;11.30;96.70
32366;DHT22;18837;46.832;16.838;2024-03-23T04:27:51;11.30;96.40
32366;DHT22;18837;46.832;16.838;2024-03-23T04:30:17;11.30;96.70
32366;DHT22;18837;46.832;16.838;2024-03-23T04:32:43;11.30;96.70
32366;DHT22;18837;46.832;16.838;2024-03-23T04:35:09;11.30;96.70
32366;DHT22;18837;46.832;16.838;2024-03-23T04:37:36;11.30;96.60
32366;DHT22;18837;46.832;16.838;2024-03-23T04:40:02;11.20;96.60
32366;DHT22;18837;46.832;16.838;2024-03-23T04:42:29;11.30;96.80
32366;DHT22;18837;46.832;16.838;2024-03-23T04:44:55;11.20;96.80
32366;DHT22;18837;46.832;16.838;2024-03-23T04:47:21;11.30;96.80
32366;DHT22;18837;46.832;16.838;2024-03-23T04:49:47;11.20;96.90
32366;DHT22;18837;46.832;16.838;2024-03-23T04:52:13;11.20;96.70
32366;DHT22;18837;46.832;16.838;2024-03-23T04:54:39;11.20;97.30
32366;DHT22;18837;46.832;16.838;2024-03-23T04:57:08;11.20;96.80
32366;DHT22;18837;46.832;16.838;2024-03-23T04:59:34;11.20;96.70
32366;DHT22;18837;46.832;16.838;2024-03-23T05:02:00;11.20;96.70
32366;DHT22;18837;46.832;16.838;2024-03-23T05:04:26;11.20;96.70
32366;DHT22;18837;46.832;16.838;2024-03-23T05:06:52;11.20;97.00
32366;DHT22;18837;46.832;16.838;2024-03-23T05:09:19;11.20;96.70
32366;DHT22;18837;46.832;16.838;2024-03-23T05:11:45;11.20;96.80
32366;DHT22;18837;46.832;16.838;2024-03-23T05:14:13;11.20;96.90
32366;DHT22;18837;46.832;16.838;2024-03-23T05:16:39;11.20;96.80
32366;DHT22;18837;46.832;16.838;2024-03-23T05:19:05;11.20;97.10
32366;DHT22;18837;46.832;16.838;2024-03-23T05:21:31;11.20;96.90
32366;DHT22;18837;46.832;16.838;2024-03-23T05:23:57;11.20;96.90
32366;DHT22;18837;46.832;16.838;2024-03-23T05:26:23;11.20;97.00
32366;DHT22;18837;46.832;16.838;2024-03-23T05:28:49;12.10;97.20
32366;DHT22;18837;46.832;16.838;2024-03-23T05:31:24;11.20;97.00
32366;DHT22;18837;46.832;16.838;2024-03-23T05:33:50;11.20;96.90
32366;DHT22;18837;46.832;16.838;2024-03-23T05:36:16;11.20;96.80
32366;DHT22;18837;46.832;16.838;2024-03-23T05:38:42;11.10;96.90
32366;DHT22;18837;46.832;16.838;2024-03-23T05:41:08;11.10;97.00
32366;DHT22;18837;46.832;16.838;2024-03-23T05:43:35;11.10;96.90
32366;DHT22;18837;46.832;16.838;2024-03-23T05:46:01;11.10;97.10
32366;DHT22;18837;46.832;16.838;2024-03-23T05:48:31;11.10;96.90
32366;DHT22;18837;46.832;16.838;2024-03-23T05:50:57;11.20;97.00
32366;DHT22;18837;46.832;16.838;2024-03-23T05:53:23;11.20;97.00
32366;DHT22;18837;46.832;16.838;2024-03-23T05:55:50;11.20;96.90
32366;DHT22;18837;46.832;16.838;2024-03-23T05:58:17;11.20;96.80
32366;DHT22;18837;46.832;16.838;2024-03-23T06:00:44;11.20;96.80
32366;DHT22;18837;46.832;16.838;2024-03-23T06:03:10;11.20;96.90
32366;DHT22;18837;46.832;16.838;2024-03-23T06:05:36;11.20;96.50
32366;DHT22;18837;46.832;16.838;2024-03-23T06:08:03;11.20;96.90
32366;DHT22;18837;46.832;16.838;2024-03-23T06:10:29;11.20;96.70
32366;DHT22;18837;46.832;16.838;2024-03-23T06:12:54;11.20;96.60
32366;DHT22;18837;46.832;16.838;2024-03-23T06:15:21;11.20;96.60
32366;DHT22;18837;46.832;16.838;2024-03-23T06:17:48;11.20;96.70
32366;DHT22;18837;46.832;16.838;2024-03-23T06:20:14;11.20;96.60
32366;DHT22;18837;46.832;16.838;2024-03-23T06:22:40;11.20;96.50
32366;DHT22;18837;46.832;16.838;2024-03-23T06:25:06;11.20;96.70
32366;DHT22;18837;46.832;16.838;2024-03-23T06:27:33;11.20;96.60
32366;DHT22;18837;46.832;16.838;2024-03-23T06:29:59;11.30;96.50
32366;DHT22;18837;46.832;16.838;2024-03-23T06:32:25;11.30;96.60
32366;DHT22;18837;46.832;16.838;2024-03-23T06:34:51;11.30;96.40
32366;DHT22;18837;46.832;16.838;2024-03-23T06:37:17;11.30;96.60
32366;DHT22;18837;46.832;16.838;2024-03-23T06:39:42;11.40;96.50
32366;DHT22;18837;46.832;16.838;2024-03-23T06:42:08;11.40;96.50
32366;DHT22;18837;46.832;16.838;2024-03-23T06:44:34;11.40;96.40
32366;DHT22;18837;46.832;16.838;2024-03-23T06:47:00;11.40;96.50
32366;DHT22;18837;46.832;16.838;2024-03-23T06:49:26;11.50;96.50
32366;DHT22;18837;46.832;16.838;2024-03-23T06:51:51;11.50;96.40
32366;DHT22;18837;46.832;16.838;2024-03-23T06:54:18;11.50;96.30
32366;DHT22;18837;46.832;16.838;2024-03-23T06:56:44;11.50;96.50
32366;DHT22;18837;46.832;16.838;2024-03-23T06:59:10;11.60;96.40
32366;DHT22;18837;46.832;16.838;2024-03-23T07:01:36;11.60;96.30
32366;DHT22;18837;46.832;16.838;2024-03-23T07:04:02;11.60;96.30
32366;DHT22;18837;46.832;16.838;2024-03-23T07:06:32;11.70;96.30
32366;DHT22;18837;46.832;16.838;2024-03-23T07:08:58;11.70;96.40
32366;DHT22;18837;46.832;16.838;2024-03-23T07:11:24;11.70;96.70
32366;DHT22;18837;46.832;16.838;2024-03-23T07:13:51;11.70;96.30
32366;DHT22;18837;46.832;16.838;2024-03-23T07:16:17;11.70;96.40
32366;DHT22;18837;46.832;16.838;2024-03-23T07:18:43;11.70;96.70
32366;DHT22;18837;46.832;16.838;2024-03-23T07:21:09;11.80;96.70
32366;DHT22;18837;46.832;16.838;2024-03-23T07:23:35;11.90;96.60
32366;DHT22;18837;46.832;16.838;2024-03-23T07:26:03;11.90;96.60
32366;DHT22;18837;46.832;16.838;2024-03-23T07:28:34;11.90;96.60
32366;DHT22;18837;46.832;16.838;2024-03-23T07:31:04;11.90;96.60
32366;DHT22;18837;46.832;16.838;2024-03-23T07:33:30;12.00;96.80
32366;DHT22;18837;46.832;16.838;2024-03-23T07:35:56;12.00;96.70
32366;DHT22;18837;46.832;16.838;2024-03-23T07:38:23;12.00;96.80
32366;DHT22;18837;46.832;16.838;2024-03-23T07:40:49;12.10;96.90
32366;DHT22;18837;46.832;16.838;2024-03-23T07:43:21;12.10;96.70
32366;DHT22;18837;46.832;16.838;2024-03-23T07:45:54;12.10;96.80
32366;DHT22;18837;46.832;16.838;2024-03-23T07:48:23;12.10;96.70
32366;DHT22;18837;46.832;16.838;2024-03-23T07:51:09;12.20;96.70
32366;DHT22;18837;46.832;16.838;2024-03-23T07:53:35;12.20;96.80
32366;DHT22;18837;46.832;16.838;2024-03-23T07:56:06;12.20;96.80
32366;DHT22;18837;46.832;16.838;2024-03-23T07:58:32;12.30;96.60
32366;DHT22;18837;46.832;16.838;2024-03-23T08:01:24;12.30;96.80
32366;DHT22;18837;46.832;16.838;2024-03-23T08:03:50;12.40;96.70
32366;DHT22;18837;46.832;16.838;2024-03-23T08:06:20;12.40;96.70
32366;DHT22;18837;46.832;16.838;2024-03-23T08:08:50;12.40;96.60
32366;DHT22;18837;46.832;16.838;2024-03-23T08:11:17;12.40;96.30
32366;DHT22;18837;46.832;16.838;2024-03-23T08:13:45;12.40;96.70
32366;DHT22;18837;46.832;16.838;2024-03-23T08:16:11;12.50;96.60
32366;DHT22;18837;46.832;16.838;2024-03-23T08:18:39;12.50;96.60
32366;DHT22;18837;46.832;16.838;2024-03-23T08:21:06;12.50;96.40
32366;DHT22;18837;46.832;16.838;2024-03-23T08:23:33;12.50;96.50
32366;DHT22;18837;46.832;16.838;2024-03-23T08:26:01;12.50;96.60
32366;DHT22;18837;46.832;16.838;2024-03-23T08:28:28;12.60;96.70
32366;DHT22;18837;46.832;16.838;2024-03-23T08:30:55;12.60;96.50
32366;DHT22;18837;46.832;16.838;2024-03-23T08:33:22;12.70;96.60
32366;DHT22;18837;46.832;16.838;2024-03-23T08:35:59;12.70;96.50
32366;DHT22;18837;46.832;16.838;2024-03-23T08:38:26;12.80;96.30
32366;DHT22;18837;46.832;16.838;2024-03-23T08:41:05;12.80;96.20
32366;DHT22;18837;46.832;16.838;2024-03-23T08:43:39;12.90;96.50
32366;DHT22;18837;46.832;16.838;2024-03-23T08:46:10;12.90;96.70
32366;DHT22;18837;46.832;16.838;2024-03-23T08:48:38;13.00;96.70
32366;DHT22;18837;46.832;16.838;2024-03-23T08:51:05;13.00;96.60
32366;DHT22;18837;46.832;16.838;2024-03-23T08:53:31;13.00;96.60
32366;DHT22;18837;46.832;16.838;2024-03-23T08:55:58;13.10;96.60
32366;DHT22;18837;46.832;16.838;2024-03-23T08:58:26;13.10;96.40
32366;DHT22;18837;46.832;16.838;2024-03-23T09:00:52;13.20;96.50
32366;DHT22;18837;46.832;16.838;2024-03-23T09:03:21;13.20;96.80
32366;DHT22;18837;46.832;16.838;2024-03-23T09:05:47;13.20;96.80
32366;DHT22;18837;46.832;16.838;2024-03-23T09:08:12;13.30;96.80
32366;DHT22;18837;46.832;16.838;2024-03-23T09:10:39;13.30;96.90
32366;DHT22;18837;46.832;16.838;2024-03-23T09:13:05;13.30;96.30
32366;DHT22;18837;46.832;16.838;2024-03-23T09:15:34;13.40;96.20
32366;DHT22;18837;46.832;16.838;2024-03-23T09:18:00;13.40;96.10
32366;DHT22;18837;46.832;16.838;2024-03-23T09:20:26;13.40;96.40
32366;DHT22;18837;46.832;16.838;2024-03-23T09:22:52;13.50;96.40
32366;DHT22;18837;46.832;16.838;2024-03-23T09:25:17;13.50;96.40
32366;DHT22;18837;46.832;16.838;2024-03-23T09:27:48;13.60;96.30
32366;DHT22;18837;46.832;16.838;2024-03-23T09:30:14;13.60;96.60
32366;DHT22;18837;46.832;16.838;2024-03-23T09:32:43;13.60;96.40
32366;DHT22;18837;46.832;16.838;2024-03-23T09:35:09;13.60;96.40
32366;DHT22;18837;46.832;16.838;2024-03-23T09:37:34;13.60;96.10
32366;DHT22;18837;46.832;16.838;2024-03-23T09:40:00;13.70;96.30
32366;DHT22;18837;46.832;16.838;2024-03-23T09:42:26;13.70;96.30
32366;DHT22;18837;46.832;16.838;2024-03-23T09:44:52;13.70;96.60
32366;DHT22;18837;46.832;16.838;2024-03-23T09:47:18;13.80;96.50
32366;DHT22;18837;46.832;16.838;2024-03-23T09:49:44;13.80;96.30
32366;DHT22;18837;46.832;16.838;2024-03-23T09:52:11;13.90;96.00
32366;DHT22;18837;46.832;16.838;2024-03-23T09:54:36;13.90;95.60
32366;DHT22;18837;46.832;16.838;2024-03-23T09:57:03;13.90;95.50
32366;DHT22;18837;46.832;16.838;2024-03-23T09:59:29;13.90;95.50
32366;DHT22;18837;46.832;16.838;2024-03-23T10:01:56;13.90;95.80
32366;DHT22;18837;46.832;16.838;2024-03-23T10:04:38;13.90;95.90
32366;DHT22;18837;46.832;16.838;2024-03-23T10:07:14;14.00;95.60
32366;DHT22;18837;46.832;16.838;2024-03-23T10:09:41;14.00;95.90
32366;DHT22;18837;46.832;16.838;2024-03-23T10:12:11;14.10;95.80
32366;DHT22;18837;46.832;16.838;2024-03-23T10:14:42;14.10;95.90
32366;DHT22;18837;46.832;16.838;2024-03-23T10:17:21;14.10;95.70
32366;DHT22;18837;46.832;16.838;2024-03-23T10:19:51;14.10;95.60
32366;DHT22;18837;46.832;16.838;2024-03-23T10:22:21;14.10;95.30
32366;DHT22;18837;46.832;16.838;2024-03-23T10:24:48;14.10;95.30
32366;DHT22;18837;46.832;16.838;2024-03-23T10:27:21;14.20;95.40
32366;DHT22;18837;46.832;16.838;2024-03-23T10:29:51;14.20;95.40
32366;DHT22;18837;46.832;16.838;2024-03-23T10:32:18;14.20;95.00
32366;DHT22;18837;46.832;16.838;2024-03-23T10:34:44;14.20;95.20
32366;DHT22;18837;46.832;16.838;2024-03-23T10:37:10;14.20;95.20
32366;DHT22;18837;46.832;16.838;2024-03-23T10:39:41;14.20;95.30
32366;DHT22;18837;46.832;16.838;2024-03-23T10:42:09;14.20;95.10
32366;DHT22;18837;46.832;16.838;2024-03-23T10:44:37;14.20;95.10
32366;DHT22;18837;46.832;16.838;2024-03-23T10:47:04;14.10;95.00
32366;DHT22;18837;46.832;16.838;2024-03-23T10:49:34;14.10;94.50
32366;DHT22;18837;46.832;16.838;2024-03-23T10:52:03;14.20;94.80
32366;DHT22;18837;46.832;16.838;2024-03-23T10:54:33;14.20;94.60
32366;DHT22;18837;46.832;16.838;2024-03-23T10:57:06;14.20;94.60
32366;DHT22;18837;46.832;16.838;2024-03-23T10:59:36;14.20;94.80
32366;DHT22;18837;46.832;16.838;2024-03-23T11:02:02;14.10;94.70
32366;DHT22;18837;46.832;16.838;2024-03-23T11:04:36;14.20;95.10
32366;DHT22;18837;46.832;16.838;2024-03-23T11:09:50;14.20;95.20
32366;DHT22;18837;46.832;16.838;2024-03-23T11:12:28;14.20;94.80
32366;DHT22;18837;46.832;16.838;2024-03-23T11:15:04;14.20;95.20
32366;DHT22;18837;46.832;16.838;2024-03-23T11:17:30;14.20;94.90
32366;DHT22;18837;46.832;16.838;2024-03-23T11:20:00;14.20;95.10
32366;DHT22;18837;46.832;16.838;2024-03-23T11:25:22;14.30;94.70
32366;DHT22;18837;46.832;16.838;2024-03-23T11:27:53;14.30;95.10
32366;DHT22;18837;46.832;16.838;2024-03-23T11:30:24;14.30;94.30
32366;DHT22;18837;46.832;16.838;2024-03-23T11:32:56;14.30;94.90
32366;DHT22;18837;46.832;16.838;2024-03-23T11:35:40;14.30;94.90
32366;DHT22;18837;46.832;16.838;2024-03-23T11:38:10;14.40;94.60
32366;DHT22;18837;46.832;16.838;2024-03-23T11:40:38;14.40;94.40
32366;DHT22;18837;46.832;16.838;2024-03-23T11:43:06;14.40;94.10
32366;DHT22;18837;46.832;16.838;2024-03-23T11:45:57;14.40;94.60
32366;DHT22;18837;46.832;16.838;2024-03-23T11:48:23;14.40;94.20
32366;DHT22;18837;46.832;16.838;2024-03-23T11:50:51;14.40;94.70
32366;DHT22;18837;46.832;16.838;2024-03-23T11:53:25;14.40;94.30
32366;DHT22;18837;46.832;16.838;2024-03-23T11:55:58;14.50;94.70
32366;DHT22;18837;46.832;16.838;2024-03-23T11:58:26;14.50;94.80
32366;DHT22;18837;46.832;16.838;2024-03-23T12:00:57;14.50;94.60
32366;DHT22;18837;46.832;16.838;2024-03-23T12:03:24;14.50;94.60
32366;DHT22;18837;46.832;16.838;2024-03-23T12:05:55;14.60;94.30
32366;DHT22;18837;46.832;16.838;2024-03-23T12:08:39;14.60;93.90
32366;DHT22;18837;46.832;16.838;2024-03-23T12:11:12;14.60;94.10
32366;DHT22;18837;46.832;16.838;2024-03-23T12:13:41;14.60;94.40
32366;DHT22;18837;46.832;16.838;2024-03-23T12:16:15;14.70;94.00
32366;DHT22;18837;46.832;16.838;2024-03-23T12:18:42;14.70;93.60
32366;DHT22;18837;46.832;16.838;2024-03-23T12:21:08;14.70;93.80
32366;DHT22;18837;46.832;16.838;2024-03-23T12:23:35;14.70;94.00
32366;DHT22;18837;46.832;16.838;2024-03-23T12:26:01;14.70;94.30
32366;DHT22;18837;46.832;16.838;2024-03-23T12:28:28;14.80;94.00
32366;DHT22;18837;46.832;16.838;2024-03-23T12:30:54;14.80;94.00
32366;DHT22;18837;46.832;16.838;2024-03-23T12:33:20;14.90;93.30
32366;DHT22;18837;46.832;16.838;2024-03-23T12:41:22;15.20;92.30
32366;DHT22;18837;46.832;16.838;2024-03-23T12:43:48;15.30;92.80
32366;DHT22;18837;46.832;16.838;2024-03-23T12:46:15;15.30;92.70
32366;DHT22;18837;46.832;16.838;2024-03-23T12:48:46;15.30;92.80
32366;DHT22;18837;46.832;16.838;2024-03-23T12:51:12;15.30;93.10
32366;DHT22;18837;46.832;16.838;2024-03-23T12:53:37;15.30;92.70
32366;DHT22;18837;46.832;16.838;2024-03-23T12:56:03;15.30;92.30
32366;DHT22;18837;46.832;16.838;2024-03-23T12:58:29;15.30;93.20
32366;DHT22;18837;46.832;16.838;2024-03-23T13:00:58;15.40;92.80
32366;DHT22;18837;46.832;16.838;2024-03-23T13:03:24;15.40;92.60
32366;DHT22;18837;46.832;16.838;2024-03-23T13:06:10;15.40;92.90
32366;DHT22;18837;46.832;16.838;2024-03-23T13:08:44;15.40;92.80
32366;DHT22;18837;46.832;16.838;2024-03-23T13:11:10;15.40;92.60
32366;DHT22;18837;46.832;16.838;2024-03-23T13:13:37;15.40;92.90
32366;DHT22;18837;46.832;16.838;2024-03-23T13:16:04;15.40;92.50
32366;DHT22;18837;46.832;16.838;2024-03-23T13:18:31;15.40;91.90
32366;DHT22;18837;46.832;16.838;2024-03-23T13:20:57;15.50;92.40
32366;DHT22;18837;46.832;16.838;2024-03-23T13:23:23;15.50;92.20
32366;DHT22;18837;46.832;16.838;2024-03-23T13:25:53;15.50;92.30
32366;DHT22;18837;46.832;16.838;2024-03-23T13:28:21;15.50;92.30
32366;DHT22;18837;46.832;16.838;2024-03-23T13:30:54;15.50;92.30
32366;DHT22;18837;46.832;16.838;2024-03-23T13:33:20;15.50;91.40
32366;DHT22;18837;46.832;16.838;2024-03-23T13:35:53;15.50;92.20
32366;DHT22;18837;46.832;16.838;2024-03-23T13:38:26;15.60;92.10
32366;DHT22;18837;46.832;16.838;2024-03-23T13:41:02;15.60;91.90
32366;DHT22;18837;46.832;16.838;2024-03-23T13:43:30;15.60;92.10
32366;DHT22;18837;46.832;16.838;2024-03-23T13:45:59;15.60;92.20
32366;DHT22;18837;46.832;16.838;2024-03-23T13:48:26;15.60;92.20
32366;DHT22;18837;46.832;16.838;2024-03-23T13:51:02;15.60;91.80
32366;DHT22;18837;46.832;16.838;2024-03-23T13:53:28;15.60;92.30
32366;DHT22;18837;46.832;16.838;2024-03-23T13:55:54;15.60;92.20
32366;DHT22;18837;46.832;16.838;2024-03-23T13:58:21;15.60;91.90
32366;DHT22;18837;46.832;16.838;2024-03-23T14:00:47;15.70;92.20
32366;DHT22;18837;46.832;16.838;2024-03-23T14:03:13;15.60;92.30
32366;DHT22;18837;46.832;16.838;2024-03-23T14:05:39;15.60;92.40
32366;DHT22;18837;46.832;16.838;2024-03-23T14:08:09;15.70;92.40
32366;DHT22;18837;46.832;16.838;2024-03-23T14:10:36;15.60;92.30
32366;DHT22;18837;46.832;16.838;2024-03-23T14:13:02;15.60;92.10
32366;DHT22;18837;46.832;16.838;2024-03-23T14:15:32;15.70;92.40
32366;DHT22;18837;46.832;16.838;2024-03-23T14:17:59;15.60;92.60
32366;DHT22;18837;46.832;16.838;2024-03-23T14:20:26;15.70;92.50
32366;DHT22;18837;46.832;16.838;2024-03-23T14:22:52;15.70;92.60
32366;DHT22;18837;46.832;16.838;2024-03-23T14:25:18;15.70;92.70
32366;DHT22;18837;46.832;16.838;2024-03-23T14:27:45;15.70;92.50
32366;DHT22;18837;46.832;16.838;2024-03-23T14:30:11;15.70;92.80
32366;DHT22;18837;46.832;16.838;2024-03-23T14:32:38;15.70;93.00
32366;DHT22;18837;46.832;16.838;2024-03-23T14:35:04;15.70;92.90
32366;DHT22;18837;46.832;16.838;2024-03-23T14:37:31;15.70;92.90
32366;DHT22;18837;46.832;16.838;2024-03-23T14:39:57;15.60;93.30
32366;DHT22;18837;46.832;16.838;2024-03-23T14:42:24;15.60;93.30
32366;DHT22;18837;46.832;16.838;2024-03-23T14:44:50;15.60;93.20
32366;DHT22;18837;46.832;16.838;2024-03-23T14:47:19;15.60;93.00
32366;DHT22;18837;46.832;16.838;2024-03-23T14:49:47;15.60;93.30
32366;DHT22;18837;46.832;16.838;2024-03-23T14:52:17;15.70;93.00
32366;DHT22;18837;46.832;16.838;2024-03-23T14:54:44;15.70;92.40
32366;DHT22;18837;46.832;16.838;2024-03-23T14:57:10;15.70;92.50
32366;DHT22;18837;46.832;16.838;2024-03-23T14:59:36;15.70;92.70
32366;DHT22;18837;46.832;16.838;2024-03-23T15:02:07;15.80;92.70
32366;DHT22;18837;46.832;16.838;2024-03-23T15:04:33;15.80;92.90
32366;DHT22;18837;46.832;16.838;2024-03-23T15:07:04;15.80;92.30
32366;DHT22;18837;46.832;16.838;2024-03-23T15:09:29;15.80;92.70
32366;DHT22;18837;46.832;16.838;2024-03-23T15:11:55;15.80;92.60
32366;DHT22;18837;46.832;16.838;2024-03-23T15:14:21;15.80;92.20
32366;DHT22;18837;46.832;16.838;2024-03-23T15:16:47;15.80;92.30
32366;DHT22;18837;46.832;16.838;2024-03-23T15:19:15;15.80;92.40
32366;DHT22;18837;46.832;16.838;2024-03-23T15:21:47;15.80;92.60
32366;DHT22;18837;46.832;16.838;2024-03-23T15:24:13;15.80;92.50
32366;DHT22;18837;46.832;16.838;2024-03-23T15:26:39;15.80;93.00
32366;DHT22;18837;46.832;16.838;2024-03-23T15:29:05;15.80;93.00
32366;DHT22;18837;46.832;16.838;2024-03-23T15:31:40;15.80;93.20
32366;DHT22;18837;46.832;16.838;2024-03-23T15:34:06;15.80;93.00
32366;DHT22;18837;46.832;16.838;2024-03-23T15:36:35;15.80;92.90
32366;DHT22;18837;46.832;16.838;2024-03-23T15:39:02;15.70;92.90
32366;DHT22;18837;46.832;16.838;2024-03-23T15:41:29;15.80;93.10
32366;DHT22;18837;46.832;16.838;2024-03-23T15:43:56;15.70;93.10
32366;DHT22;18837;46.832;16.838;2024-03-23T15:46:22;15.70;92.80
32366;DHT22;18837;46.832;16.838;2024-03-23T15:48:48;15.70;92.80
32366;DHT22;18837;46.832;16.838;2024-03-23T15:51:16;15.70;92.40
32366;DHT22;18837;46.832;16.838;2024-03-23T15:53:42;15.70;92.40
32366;DHT22;18837;46.832;16.838;2024-03-23T15:56:08;15.70;92.20
32366;DHT22;18837;46.832;16.838;2024-03-23T15:58:34;15.70;92.00
32366;DHT22;18837;46.832;16.838;2024-03-23T16:01:06;15.70;91.90
32366;DHT22;18837;46.832;16.838;2024-03-23T16:03:34;15.60;91.90
32366;DHT22;18837;46.832;16.838;2024-03-23T16:06:01;15.60;91.80
32366;DHT22;18837;46.832;16.838;2024-03-23T16:08:28;15.60;91.80
32366;DHT22;18837;46.832;16.838;2024-03-23T16:10:58;15.60;91.90
32366;DHT22;18837;46.832;16.838;2024-03-23T16:13:24;15.50;91.80
32366;DHT22;18837;46.832;16.838;2024-03-23T16:16:00;15.50;91.70
32366;DHT22;18837;46.832;16.838;2024-03-23T16:18:29;15.50;91.60
32366;DHT22;18837;46.832;16.838;2024-03-23T16:20:59;15.50;91.50